sensor_id;sensor_type;location;lat;lon;timestamp;P1;durP1;ratioP1;P2;durP2;ratioP2
15307;SDS011;7755;52.208;6.964;2023-11-21T00:03:04;47.90;;;29.10;;
15307;SDS011;7755;52.208;6.964;2023-11-21T00:07:09;40.87;;;27.50;;
15307;SDS011;7755;52.208;6.964;2023-11-21T00:11:21;44.23;;;28.37;;
15307;SDS011;7755;52.208;6.964;2023-11-21T00:15:26;40.57;;;28.43;;
15307;SDS011;7755;52.208;6.964;2023-11-21T00:19:34;52.93;;;33.60;;
15307;SDS011;7755;52.208;6.964;2023-11-21T00:23:39;50.87;;;26.97;;
15307;SDS011;7755;52.208;6.964;2023-11-21T00:27:44;49.27;;;31.70;;
15307;SDS011;7755;52.208;6.964;2023-11-21T00:31:49;58.93;;;31.00;;
15307;SDS011;7755;52.208;6.964;2023-11-21T00:35:56;51.93;;;29.67;;
15307;SDS011;7755;52.208;6.964;2023-11-21T00:40:02;53.80;;;31.27;;
15307;SDS011;7755;52.208;6.964;2023-11-21T00:44:09;44.97;;;27.97;;
15307;SDS011;7755;52.208;6.964;2023-11-21T00:48:15;44.40;;;27.17;;
15307;SDS011;7755;52.208;6.964;2023-11-21T00:52:22;51.70;;;27.70;;
15307;SDS011;7755;52.208;6.964;2023-11-21T00:56:27;48.10;;;27.83;;
15307;SDS011;7755;52.208;6.964;2023-11-21T01:00:35;47.73;;;28.30;;
15307;SDS011;7755;52.208;6.964;2023-11-21T01:04:41;41.83;;;25.13;;
15307;SDS011;7755;52.208;6.964;2023-11-21T01:08:49;43.17;;;26.17;;
15307;SDS011;7755;52.208;6.964;2023-11-21T01:12:54;48.90;;;29.03;;
15307;SDS011;7755;52.208;6.964;2023-11-21T01:16:59;42.07;;;26.17;;
15307;SDS011;7755;52.208;6.964;2023-11-21T01:21:06;43.87;;;28.10;;
15307;SDS011;7755;52.208;6.964;2023-11-21T01:25:14;44.87;;;26.57;;
15307;SDS011;7755;52.208;6.964;2023-11-21T01:29:25;43.27;;;25.63;;
15307;SDS011;7755;52.208;6.964;2023-11-21T01:33:30;40.30;;;26.83;;
15307;SDS011;7755;52.208;6.964;2023-11-21T01:41:45;40.73;;;25.47;;
15307;SDS011;7755;52.208;6.964;2023-11-21T01:45:50;40.43;;;26.17;;
15307;SDS011;7755;52.208;6.964;2023-11-21T01:49:55;40.53;;;25.53;;
15307;SDS011;7755;52.208;6.964;2023-11-21T01:54:00;44.37;;;27.50;;
15307;SDS011;7755;52.208;6.964;2023-11-21T01:58:20;40.80;;;26.10;;
15307;SDS011;7755;52.208;6.964;2023-11-21T02:02:25;36.20;;;23.40;;
15307;SDS011;7755;52.208;6.964;2023-11-21T02:06:31;38.33;;;24.87;;
15307;SDS011;7755;52.208;6.964;2023-11-21T02:10:36;32.47;;;22.63;;
15307;SDS011;7755;52.208;6.964;2023-11-21T02:14:45;49.20;;;31.40;;
15307;SDS011;7755;52.208;6.964;2023-11-21T02:18:50;42.23;;;27.13;;
15307;SDS011;7755;52.208;6.964;2023-11-21T02:22:59;47.80;;;29.67;;
15307;SDS011;7755;52.208;6.964;2023-11-21T02:27:05;42.40;;;29.70;;
15307;SDS011;7755;52.208;6.964;2023-11-21T02:31:10;51.90;;;34.47;;
15307;SDS011;7755;52.208;6.964;2023-11-21T02:35:15;43.77;;;27.43;;
15307;SDS011;7755;52.208;6.964;2023-11-21T02:39:22;55.53;;;35.67;;
15307;SDS011;7755;52.208;6.964;2023-11-21T02:43:27;49.50;;;33.30;;
15307;SDS011;7755;52.208;6.964;2023-11-21T02:47:33;53.07;;;33.20;;
15307;SDS011;7755;52.208;6.964;2023-11-21T02:51:38;48.30;;;32.93;;
15307;SDS011;7755;52.208;6.964;2023-11-21T02:55:45;49.60;;;34.03;;
15307;SDS011;7755;52.208;6.964;2023-11-21T02:59:50;81.07;;;42.60;;
15307;SDS011;7755;52.208;6.964;2023-11-21T03:03:55;74.47;;;39.60;;
15307;SDS011;7755;52.208;6.964;2023-11-21T03:08:00;73.93;;;41.00;;
15307;SDS011;7755;52.208;6.964;2023-11-21T03:12:09;62.33;;;34.97;;
15307;SDS011;7755;52.208;6.964;2023-11-21T03:16:15;48.73;;;34.53;;
15307;SDS011;7755;52.208;6.964;2023-11-21T03:20:21;61.47;;;37.47;;
15307;SDS011;7755;52.208;6.964;2023-11-21T03:24:26;54.37;;;35.17;;
15307;SDS011;7755;52.208;6.964;2023-11-21T03:28:34;71.43;;;39.50;;
15307;SDS011;7755;52.208;6.964;2023-11-21T03:32:39;50.03;;;34.40;;
15307;SDS011;7755;52.208;6.964;2023-11-21T03:36:44;60.50;;;39.10;;
15307;SDS011;7755;52.208;6.964;2023-11-21T03:40:50;59.37;;;34.90;;
15307;SDS011;7755;52.208;6.964;2023-11-21T03:44:58;69.40;;;41.50;;
15307;SDS011;7755;52.208;6.964;2023-11-21T03:49:03;67.60;;;41.57;;
15307;SDS011;7755;52.208;6.964;2023-11-21T03:53:08;60.40;;;35.57;;
15307;SDS011;7755;52.208;6.964;2023-11-21T03:57:13;58.83;;;36.57;;
15307;SDS011;7755;52.208;6.964;2023-11-21T04:01:21;69.10;;;40.37;;
15307;SDS011;7755;52.208;6.964;2023-11-21T04:05:27;73.30;;;44.43;;
15307;SDS011;7755;52.208;6.964;2023-11-21T04:09:32;65.50;;;38.67;;
15307;SDS011;7755;52.208;6.964;2023-11-21T04:13:37;55.60;;;36.87;;
15307;SDS011;7755;52.208;6.964;2023-11-21T04:17:47;66.90;;;42.00;;
15307;SDS011;7755;52.208;6.964;2023-11-21T04:21:52;86.90;;;42.77;;
15307;SDS011;7755;52.208;6.964;2023-11-21T04:25:56;65.70;;;39.97;;
15307;SDS011;7755;52.208;6.964;2023-11-21T04:30:04;81.47;;;42.83;;
15307;SDS011;7755;52.208;6.964;2023-11-21T04:34:14;65.63;;;37.47;;
15307;SDS011;7755;52.208;6.964;2023-11-21T04:38:19;57.83;;;34.83;;
15307;SDS011;7755;52.208;6.964;2023-11-21T04:42:24;52.53;;;32.83;;
15307;SDS011;7755;52.208;6.964;2023-11-21T04:46:29;56.93;;;37.87;;
15307;SDS011;7755;52.208;6.964;2023-11-21T04:50:36;68.57;;;37.90;;
15307;SDS011;7755;52.208;6.964;2023-11-21T04:54:41;47.47;;;32.60;;
15307;SDS011;7755;52.208;6.964;2023-11-21T04:58:46;71.07;;;39.67;;
15307;SDS011;7755;52.208;6.964;2023-11-21T05:02:51;47.87;;;32.13;;
15307;SDS011;7755;52.208;6.964;2023-11-21T05:06:59;55.63;;;35.00;;
15307;SDS011;7755;52.208;6.964;2023-11-21T05:11:04;56.97;;;33.93;;
15307;SDS011;7755;52.208;6.964;2023-11-21T05:15:14;75.43;;;41.70;;
15307;SDS011;7755;52.208;6.964;2023-11-21T05:19:19;62.30;;;36.77;;
15307;SDS011;7755;52.208;6.964;2023-11-21T05:23:27;71.00;;;37.50;;
15307;SDS011;7755;52.208;6.964;2023-11-21T05:27:32;94.37;;;40.50;;
15307;SDS011;7755;52.208;6.964;2023-11-21T05:31:36;56.37;;;35.20;;
15307;SDS011;7755;52.208;6.964;2023-11-21T05:35:42;47.23;;;34.80;;
15307;SDS011;7755;52.208;6.964;2023-11-21T05:39:51;62.77;;;38.87;;
15307;SDS011;7755;52.208;6.964;2023-11-21T05:44:01;71.30;;;41.73;;
15307;SDS011;7755;52.208;6.964;2023-11-21T05:52:22;37.63;;;29.17;;
15307;SDS011;7755;52.208;6.964;2023-11-21T05:56:39;97.97;;;46.80;;
15307;SDS011;7755;52.208;6.964;2023-11-21T06:00:44;53.10;;;32.97;;
15307;SDS011;7755;52.208;6.964;2023-11-21T06:04:49;47.87;;;32.53;;
15307;SDS011;7755;52.208;6.964;2023-11-21T06:08:54;42.43;;;30.60;;
15307;SDS011;7755;52.208;6.964;2023-11-21T06:13:02;164.73;;;51.33;;
15307;SDS011;7755;52.208;6.964;2023-11-21T06:17:09;96.87;;;45.77;;
15307;SDS011;7755;52.208;6.964;2023-11-21T06:21:15;76.37;;;42.23;;
15307;SDS011;7755;52.208;6.964;2023-11-21T06:25:21;57.63;;;37.20;;
15307;SDS011;7755;52.208;6.964;2023-11-21T06:29:28;42.93;;;31.23;;
15307;SDS011;7755;52.208;6.964;2023-11-21T06:33:33;57.73;;;38.27;;
15307;SDS011;7755;52.208;6.964;2023-11-21T06:37:38;67.93;;;38.37;;
15307;SDS011;7755;52.208;6.964;2023-11-21T06:41:49;54.57;;;35.57;;
15307;SDS011;7755;52.208;6.964;2023-11-21T06:45:56;95.87;;;45.60;;
15307;SDS011;7755;52.208;6.964;2023-11-21T06:50:01;58.87;;;36.83;;
15307;SDS011;7755;52.208;6.964;2023-11-21T06:54:08;69.63;;;39.33;;
15307;SDS011;7755;52.208;6.964;2023-11-21T06:58:13;60.73;;;35.93;;
15307;SDS011;7755;52.208;6.964;2023-11-21T07:02:21;40.93;;;30.13;;
15307;SDS011;7755;52.208;6.964;2023-11-21T07:06:26;92.80;;;45.77;;
15307;SDS011;7755;52.208;6.964;2023-11-21T07:10:32;80.80;;;47.53;;
15307;SDS011;7755;52.208;6.964;2023-11-21T07:14:38;62.83;;;33.77;;
15307;SDS011;7755;52.208;6.964;2023-11-21T07:18:49;46.23;;;32.70;;
15307;SDS011;7755;52.208;6.964;2023-11-21T07:22:53;39.83;;;28.80;;
15307;SDS011;7755;52.208;6.964;2023-11-21T07:26:59;47.53;;;30.33;;
15307;SDS011;7755;52.208;6.964;2023-11-21T07:31:05;45.40;;;29.93;;
15307;SDS011;7755;52.208;6.964;2023-11-21T07:35:14;34.93;;;26.33;;
15307;SDS011;7755;52.208;6.964;2023-11-21T07:39:19;34.03;;;25.17;;
15307;SDS011;7755;52.208;6.964;2023-11-21T07:43:25;39.70;;;27.53;;
15307;SDS011;7755;52.208;6.964;2023-11-21T07:47:37;35.20;;;26.37;;
15307;SDS011;7755;52.208;6.964;2023-11-21T07:51:44;42.93;;;29.73;;
15307;SDS011;7755;52.208;6.964;2023-11-21T07:55:49;35.70;;;26.23;;
15307;SDS011;7755;52.208;6.964;2023-11-21T08:04:35;41.83;;;31.90;;
15307;SDS011;7755;52.208;6.964;2023-11-21T08:08:43;38.17;;;26.30;;
15307;SDS011;7755;52.208;6.964;2023-11-21T08:12:48;51.53;;;29.37;;
15307;SDS011;7755;52.208;6.964;2023-11-21T08:16:55;56.33;;;33.23;;
15307;SDS011;7755;52.208;6.964;2023-11-21T08:21:00;39.40;;;27.90;;
15307;SDS011;7755;52.208;6.964;2023-11-21T08:25:09;42.40;;;29.00;;
15307;SDS011;7755;52.208;6.964;2023-11-21T08:29:15;42.13;;;29.00;;
15307;SDS011;7755;52.208;6.964;2023-11-21T08:33:20;37.87;;;26.93;;
15307;SDS011;7755;52.208;6.964;2023-11-21T08:37:24;52.20;;;34.20;;
15307;SDS011;7755;52.208;6.964;2023-11-21T08:41:34;40.50;;;28.30;;
15307;SDS011;7755;52.208;6.964;2023-11-21T08:45:39;34.97;;;26.20;;
15307;SDS011;7755;52.208;6.964;2023-11-21T08:49:45;50.27;;;30.80;;
15307;SDS011;7755;52.208;6.964;2023-11-21T08:53:50;43.63;;;27.97;;
15307;SDS011;7755;52.208;6.964;2023-11-21T08:57:57;47.60;;;30.17;;
15307;SDS011;7755;52.208;6.964;2023-11-21T09:02:02;39.40;;;25.73;;
15307;SDS011;7755;52.208;6.964;2023-11-21T09:06:09;59.23;;;34.27;;
15307;SDS011;7755;52.208;6.964;2023-11-21T09:10:13;46.90;;;32.17;;
15307;SDS011;7755;52.208;6.964;2023-11-21T09:14:21;42.73;;;30.50;;
15307;SDS011;7755;52.208;6.964;2023-11-21T09:18:26;43.93;;;28.23;;
15307;SDS011;7755;52.208;6.964;2023-11-21T09:22:32;31.17;;;22.50;;
15307;SDS011;7755;52.208;6.964;2023-11-21T09:26:38;34.20;;;24.23;;
15307;SDS011;7755;52.208;6.964;2023-11-21T09:30:48;31.17;;;21.40;;
15307;SDS011;7755;52.208;6.964;2023-11-21T09:34:53;31.67;;;21.77;;
15307;SDS011;7755;52.208;6.964;2023-11-21T09:39:00;39.70;;;25.10;;
15307;SDS011;7755;52.208;6.964;2023-11-21T09:43:08;25.73;;;17.87;;
15307;SDS011;7755;52.208;6.964;2023-11-21T09:47:23;19.93;;;17.27;;
15307;SDS011;7755;52.208;6.964;2023-11-21T09:51:28;25.67;;;17.97;;
15307;SDS011;7755;52.208;6.964;2023-11-21T09:55:41;26.10;;;19.33;;
15307;SDS011;7755;52.208;6.964;2023-11-21T09:59:48;21.07;;;16.63;;
15307;SDS011;7755;52.208;6.964;2023-11-21T10:04:00;23.53;;;17.50;;
15307;SDS011;7755;52.208;6.964;2023-11-21T10:08:07;27.37;;;17.37;;
15307;SDS011;7755;52.208;6.964;2023-11-21T10:12:13;26.90;;;18.73;;
15307;SDS011;7755;52.208;6.964;2023-11-21T10:16:20;29.03;;;18.57;;
15307;SDS011;7755;52.208;6.964;2023-11-21T10:20:32;27.63;;;18.97;;
15307;SDS011;7755;52.208;6.964;2023-11-21T10:24:40;36.03;;;20.53;;
15307;SDS011;7755;52.208;6.964;2023-11-21T10:28:57;26.30;;;19.40;;
15307;SDS011;7755;52.208;6.964;2023-11-21T10:33:03;21.30;;;16.07;;
15307;SDS011;7755;52.208;6.964;2023-11-21T10:37:15;26.73;;;16.80;;
15307;SDS011;7755;52.208;6.964;2023-11-21T10:41:22;27.23;;;18.03;;
15307;SDS011;7755;52.208;6.964;2023-11-21T10:45:27;23.27;;;15.67;;
15307;SDS011;7755;52.208;6.964;2023-11-21T10:49:32;24.03;;;16.27;;
15307;SDS011;7755;52.208;6.964;2023-11-21T10:53:43;20.27;;;14.33;;
15307;SDS011;7755;52.208;6.964;2023-11-21T10:57:51;21.43;;;15.70;;
15307;SDS011;7755;52.208;6.964;2023-11-21T11:01:58;28.67;;;16.47;;
15307;SDS011;7755;52.208;6.964;2023-11-21T11:06:06;21.03;;;14.80;;
15307;SDS011;7755;52.208;6.964;2023-11-21T11:10:15;19.47;;;14.10;;
15307;SDS011;7755;52.208;6.964;2023-11-21T11:14:22;19.27;;;14.73;;
15307;SDS011;7755;52.208;6.964;2023-11-21T11:18:41;22.00;;;15.17;;
15307;SDS011;7755;52.208;6.964;2023-11-21T11:22:48;24.57;;;16.70;;
15307;SDS011;7755;52.208;6.964;2023-11-21T11:27:06;20.90;;;14.57;;
15307;SDS011;7755;52.208;6.964;2023-11-21T11:31:23;21.03;;;13.90;;
15307;SDS011;7755;52.208;6.964;2023-11-21T11:35:42;19.93;;;14.83;;
15307;SDS011;7755;52.208;6.964;2023-11-21T11:39:56;21.00;;;13.97;;
15307;SDS011;7755;52.208;6.964;2023-11-21T11:44:03;17.00;;;11.73;;
15307;SDS011;7755;52.208;6.964;2023-11-21T11:48:47;21.40;;;13.57;;
15307;SDS011;7755;52.208;6.964;2023-11-21T11:52:53;21.27;;;14.17;;
15307;SDS011;7755;52.208;6.964;2023-11-21T11:56:59;20.20;;;14.60;;
15307;SDS011;7755;52.208;6.964;2023-11-21T12:01:08;21.33;;;14.00;;
15307;SDS011;7755;52.208;6.964;2023-11-21T12:05:16;26.23;;;15.33;;
15307;SDS011;7755;52.208;6.964;2023-11-21T12:09:23;24.23;;;15.77;;
15307;SDS011;7755;52.208;6.964;2023-11-21T12:13:28;24.57;;;15.77;;
15307;SDS011;7755;52.208;6.964;2023-11-21T12:17:36;21.50;;;15.40;;
15307;SDS011;7755;52.208;6.964;2023-11-21T12:21:41;23.67;;;15.33;;
15307;SDS011;7755;52.208;6.964;2023-11-21T12:25:46;18.97;;;13.33;;
15307;SDS011;7755;52.208;6.964;2023-11-21T12:29:54;21.93;;;14.17;;
15307;SDS011;7755;52.208;6.964;2023-11-21T12:34:02;18.93;;;12.93;;
15307;SDS011;7755;52.208;6.964;2023-11-21T12:38:10;17.93;;;13.50;;
15307;SDS011;7755;52.208;6.964;2023-11-21T12:42:15;23.87;;;14.20;;
15307;SDS011;7755;52.208;6.964;2023-11-21T12:46:32;21.70;;;15.10;;
15307;SDS011;7755;52.208;6.964;2023-11-21T12:50:45;22.27;;;15.33;;
15307;SDS011;7755;52.208;6.964;2023-11-21T12:54:54;19.43;;;14.00;;
15307;SDS011;7755;52.208;6.964;2023-11-21T12:59:00;20.23;;;13.40;;
15307;SDS011;7755;52.208;6.964;2023-11-21T13:03:08;17.20;;;13.23;;
15307;SDS011;7755;52.208;6.964;2023-11-21T13:07:17;20.23;;;13.43;;
15307;SDS011;7755;52.208;6.964;2023-11-21T13:11:25;17.53;;;13.37;;
15307;SDS011;7755;52.208;6.964;2023-11-21T13:15:33;21.90;;;14.97;;
15307;SDS011;7755;52.208;6.964;2023-11-21T13:19:38;20.50;;;14.97;;
15307;SDS011;7755;52.208;6.964;2023-11-21T13:23:46;19.47;;;14.43;;
15307;SDS011;7755;52.208;6.964;2023-11-21T13:27:54;17.80;;;13.33;;
15307;SDS011;7755;52.208;6.964;2023-11-21T13:32:00;14.17;;;11.53;;
15307;SDS011;7755;52.208;6.964;2023-11-21T13:36:08;16.23;;;12.80;;
15307;SDS011;7755;52.208;6.964;2023-11-21T13:40:18;15.67;;;12.73;;
15307;SDS011;7755;52.208;6.964;2023-11-21T13:44:28;13.13;;;11.73;;
15307;SDS011;7755;52.208;6.964;2023-11-21T13:48:40;15.10;;;11.33;;
15307;SDS011;7755;52.208;6.964;2023-11-21T13:52:53;12.00;;;10.43;;
15307;SDS011;7755;52.208;6.964;2023-11-21T13:57:02;11.83;;;9.80;;
15307;SDS011;7755;52.208;6.964;2023-11-21T14:01:08;11.30;;;10.10;;
15307;SDS011;7755;52.208;6.964;2023-11-21T14:05:26;12.37;;;10.77;;
15307;SDS011;7755;52.208;6.964;2023-11-21T14:09:33;15.07;;;12.57;;
15307;SDS011;7755;52.208;6.964;2023-11-21T14:13:49;10.43;;;9.30;;
15307;SDS011;7755;52.208;6.964;2023-11-21T14:17:57;10.70;;;8.83;;
15307;SDS011;7755;52.208;6.964;2023-11-21T14:22:05;11.77;;;9.70;;
15307;SDS011;7755;52.208;6.964;2023-11-21T14:26:11;10.97;;;8.67;;
15307;SDS011;7755;52.208;6.964;2023-11-21T14:30:20;12.60;;;9.20;;
15307;SDS011;7755;52.208;6.964;2023-11-21T14:34:26;10.27;;;9.20;;
15307;SDS011;7755;52.208;6.964;2023-11-21T14:38:32;13.27;;;9.50;;
15307;SDS011;7755;52.208;6.964;2023-11-21T14:42:37;9.87;;;8.87;;
15307;SDS011;7755;52.208;6.964;2023-11-21T14:46:44;11.23;;;9.13;;
15307;SDS011;7755;52.208;6.964;2023-11-21T14:50:53;14.17;;;11.97;;
15307;SDS011;7755;52.208;6.964;2023-11-21T14:55:10;10.90;;;9.17;;
15307;SDS011;7755;52.208;6.964;2023-11-21T14:59:28;10.90;;;9.07;;
15307;SDS011;7755;52.208;6.964;2023-11-21T15:03:36;11.33;;;8.97;;
15307;SDS011;7755;52.208;6.964;2023-11-21T15:07:56;11.60;;;9.50;;
15307;SDS011;7755;52.208;6.964;2023-11-21T15:12:14;8.90;;;7.77;;
15307;SDS011;7755;52.208;6.964;2023-11-21T15:20:55;11.83;;;9.83;;
15307;SDS011;7755;52.208;6.964;2023-11-21T15:29:27;10.40;;;9.30;;
15307;SDS011;7755;52.208;6.964;2023-11-21T15:33:32;12.07;;;9.60;;
15307;SDS011;7755;52.208;6.964;2023-11-21T15:37:39;10.73;;;9.47;;
15307;SDS011;7755;52.208;6.964;2023-11-21T15:41:44;12.97;;;9.87;;
15307;SDS011;7755;52.208;6.964;2023-11-21T15:45:49;12.97;;;11.00;;
15307;SDS011;7755;52.208;6.964;2023-11-21T15:49:56;10.87;;;9.77;;
15307;SDS011;7755;52.208;6.964;2023-11-21T15:54:04;14.10;;;11.70;;
15307;SDS011;7755;52.208;6.964;2023-11-21T15:58:09;14.13;;;12.13;;
15307;SDS011;7755;52.208;6.964;2023-11-21T16:02:14;12.90;;;11.60;;
15307;SDS011;7755;52.208;6.964;2023-11-21T16:06:19;13.23;;;11.13;;
15307;SDS011;7755;52.208;6.964;2023-11-21T16:10:27;14.07;;;11.97;;
15307;SDS011;7755;52.208;6.964;2023-11-21T16:14:32;12.67;;;10.63;;
15307;SDS011;7755;52.208;6.964;2023-11-21T16:18:43;14.47;;;13.03;;
15307;SDS011;7755;52.208;6.964;2023-11-21T16:22:48;12.97;;;11.63;;
15307;SDS011;7755;52.208;6.964;2023-11-21T16:26:56;13.77;;;12.23;;
15307;SDS011;7755;52.208;6.964;2023-11-21T16:31:01;14.00;;;12.50;;
15307;SDS011;7755;52.208;6.964;2023-11-21T16:35:06;14.10;;;12.07;;
15307;SDS011;7755;52.208;6.964;2023-11-21T16:39:12;13.33;;;11.77;;
15307;SDS011;7755;52.208;6.964;2023-11-21T16:43:23;12.33;;;11.13;;
15307;SDS011;7755;52.208;6.964;2023-11-21T16:47:28;14.17;;;12.27;;
15307;SDS011;7755;52.208;6.964;2023-11-21T16:51:35;12.97;;;11.00;;
15307;SDS011;7755;52.208;6.964;2023-11-21T16:55:40;14.57;;;12.23;;
15307;SDS011;7755;52.208;6.964;2023-11-21T16:59:50;17.83;;;14.47;;
15307;SDS011;7755;52.208;6.964;2023-11-21T17:03:56;17.17;;;14.80;;
15307;SDS011;7755;52.208;6.964;2023-11-21T17:08:02;17.13;;;13.77;;
15307;SDS011;7755;52.208;6.964;2023-11-21T17:12:10;14.30;;;12.80;;
15307;SDS011;7755;52.208;6.964;2023-11-21T17:16:18;13.77;;;12.37;;
15307;SDS011;7755;52.208;6.964;2023-11-21T17:20:23;13.40;;;10.57;;
15307;SDS011;7755;52.208;6.964;2023-11-21T17:24:29;14.13;;;11.00;;
15307;SDS011;7755;52.208;6.964;2023-11-21T17:28:35;11.60;;;10.50;;
15307;SDS011;7755;52.208;6.964;2023-11-21T17:32:43;11.63;;;10.43;;
15307;SDS011;7755;52.208;6.964;2023-11-21T17:36:49;9.60;;;8.70;;
15307;SDS011;7755;52.208;6.964;2023-11-21T17:40:54;10.17;;;9.00;;
15307;SDS011;7755;52.208;6.964;2023-11-21T17:44:59;9.93;;;8.93;;
15307;SDS011;7755;52.208;6.964;2023-11-21T17:49:07;10.33;;;9.20;;
15307;SDS011;7755;52.208;6.964;2023-11-21T17:53:13;9.23;;;7.20;;
15307;SDS011;7755;52.208;6.964;2023-11-21T17:57:18;8.73;;;7.90;;
15307;SDS011;7755;52.208;6.964;2023-11-21T18:01:23;10.80;;;8.93;;
15307;SDS011;7755;52.208;6.964;2023-11-21T18:05:39;10.53;;;9.20;;
15307;SDS011;7755;52.208;6.964;2023-11-21T18:09:44;10.27;;;8.23;;
15307;SDS011;7755;52.208;6.964;2023-11-21T18:13:54;11.70;;;9.67;;
15307;SDS011;7755;52.208;6.964;2023-11-21T18:18:00;11.83;;;10.17;;
15307;SDS011;7755;52.208;6.964;2023-11-21T18:22:08;11.43;;;9.07;;
15307;SDS011;7755;52.208;6.964;2023-11-21T18:26:16;11.00;;;8.70;;
15307;SDS011;7755;52.208;6.964;2023-11-21T18:30:21;12.87;;;9.13;;
15307;SDS011;7755;52.208;6.964;2023-11-21T18:34:26;10.33;;;8.90;;
15307;SDS011;7755;52.208;6.964;2023-11-21T18:38:33;12.03;;;10.03;;
15307;SDS011;7755;52.208;6.964;2023-11-21T18:42:39;13.13;;;9.07;;
15307;SDS011;7755;52.208;6.964;2023-11-21T18:46:47;10.77;;;9.23;;
15307;SDS011;7755;52.208;6.964;2023-11-21T18:50:51;11.10;;;9.07;;
15307;SDS011;7755;52.208;6.964;2023-11-21T18:54:59;10.93;;;9.73;;
15307;SDS011;7755;52.208;6.964;2023-11-21T18:59:04;10.10;;;8.63;;
15307;SDS011;7755;52.208;6.964;2023-11-21T19:03:11;10.73;;;9.63;;
15307;SDS011;7755;52.208;6.964;2023-11-21T19:11:31;12.57;;;10.20;;
15307;SDS011;7755;52.208;6.964;2023-11-21T19:15:39;11.63;;;10.13;;
15307;SDS011;7755;52.208;6.964;2023-11-21T19:19:47;14.20;;;11.33;;
15307;SDS011;7755;52.208;6.964;2023-11-21T19:23:53;13.80;;;11.63;;
15307;SDS011;7755;52.208;6.964;2023-11-21T19:32:24;12.37;;;11.07;;
15307;SDS011;7755;52.208;6.964;2023-11-21T19:36:31;11.87;;;10.50;;
15307;SDS011;7755;52.208;6.964;2023-11-21T19:40:36;10.77;;;9.67;;
15307;SDS011;7755;52.208;6.964;2023-11-21T19:44:44;12.70;;;11.33;;
15307;SDS011;7755;52.208;6.964;2023-11-21T19:48:50;13.67;;;11.37;;
15307;SDS011;7755;52.208;6.964;2023-11-21T19:52:56;14.00;;;10.93;;
15307;SDS011;7755;52.208;6.964;2023-11-21T19:57:02;12.97;;;11.40;;
15307;SDS011;7755;52.208;6.964;2023-11-21T20:05:23;18.33;;;16.47;;
15307;SDS011;7755;52.208;6.964;2023-11-21T20:09:28;15.93;;;12.67;;
15307;SDS011;7755;52.208;6.964;2023-11-21T20:13:33;15.60;;;12.50;;
15307;SDS011;7755;52.208;6.964;2023-11-21T20:17:41;16.93;;;14.17;;
15307;SDS011;7755;52.208;6.964;2023-11-21T20:21:48;21.03;;;15.97;;
15307;SDS011;7755;52.208;6.964;2023-11-21T20:25:56;19.10;;;15.20;;
15307;SDS011;7755;52.208;6.964;2023-11-21T20:30:03;17.20;;;15.40;;
15307;SDS011;7755;52.208;6.964;2023-11-21T20:34:12;17.40;;;15.43;;
15307;SDS011;7755;52.208;6.964;2023-11-21T20:38:16;18.20;;;16.20;;
15307;SDS011;7755;52.208;6.964;2023-11-21T20:42:22;18.13;;;16.10;;
15307;SDS011;7755;52.208;6.964;2023-11-21T20:46:28;18.67;;;15.77;;
15307;SDS011;7755;52.208;6.964;2023-11-21T20:50:35;16.13;;;13.50;;
15307;SDS011;7755;52.208;6.964;2023-11-21T20:54:52;17.23;;;14.17;;
15307;SDS011;7755;52.208;6.964;2023-11-21T20:59:04;14.60;;;12.97;;
15307;SDS011;7755;52.208;6.964;2023-11-21T21:03:20;17.80;;;13.00;;
15307;SDS011;7755;52.208;6.964;2023-11-21T21:07:28;14.90;;;12.23;;
15307;SDS011;7755;52.208;6.964;2023-11-21T21:11:34;16.30;;;12.43;;
15307;SDS011;7755;52.208;6.964;2023-11-21T21:15:40;13.23;;;11.43;;
15307;SDS011;7755;52.208;6.964;2023-11-21T21:19:50;12.10;;;10.60;;
15307;SDS011;7755;52.208;6.964;2023-11-21T21:23:58;14.80;;;12.47;;
15307;SDS011;7755;52.208;6.964;2023-11-21T21:32:24;16.57;;;14.67;;
15307;SDS011;7755;52.208;6.964;2023-11-21T21:36:30;14.97;;;12.93;;
15307;SDS011;7755;52.208;6.964;2023-11-21T21:40:38;13.17;;;11.77;;
15307;SDS011;7755;52.208;6.964;2023-11-21T21:44:52;13.83;;;12.33;;
15307;SDS011;7755;52.208;6.964;2023-11-21T21:48:59;14.00;;;11.43;;
15307;SDS011;7755;52.208;6.964;2023-11-21T21:53:12;13.60;;;11.33;;
15307;SDS011;7755;52.208;6.964;2023-11-21T22:01:32;12.77;;;10.27;;
15307;SDS011;7755;52.208;6.964;2023-11-21T22:10:03;14.87;;;11.80;;
15307;SDS011;7755;52.208;6.964;2023-11-21T22:14:12;17.53;;;13.87;;
15307;SDS011;7755;52.208;6.964;2023-11-21T22:18:17;15.57;;;13.17;;
15307;SDS011;7755;52.208;6.964;2023-11-21T22:22:23;14.13;;;11.30;;
15307;SDS011;7755;52.208;6.964;2023-11-21T22:26:28;13.83;;;11.03;;
15307;SDS011;7755;52.208;6.964;2023-11-21T22:30:36;11.87;;;10.50;;
15307;SDS011;7755;52.208;6.964;2023-11-21T22:34:40;13.43;;;11.97;;
15307;SDS011;7755;52.208;6.964;2023-11-21T22:38:45;15.57;;;12.80;;
15307;SDS011;7755;52.208;6.964;2023-11-21T22:42:50;17.67;;;12.77;;
15307;SDS011;7755;52.208;6.964;2023-11-21T22:47:01;14.97;;;12.37;;
15307;SDS011;7755;52.208;6.964;2023-11-21T22:51:06;17.60;;;13.97;;
15307;SDS011;7755;52.208;6.964;2023-11-21T22:55:11;15.73;;;11.70;;
15307;SDS011;7755;52.208;6.964;2023-11-21T22:59:16;18.03;;;13.77;;
15307;SDS011;7755;52.208;6.964;2023-11-21T23:03:23;19.40;;;15.43;;
15307;SDS011;7755;52.208;6.964;2023-11-21T23:07:28;18.40;;;13.00;;
15307;SDS011;7755;52.208;6.964;2023-11-21T23:11:34;14.83;;;12.90;;
15307;SDS011;7755;52.208;6.964;2023-11-21T23:15:39;17.60;;;13.03;;
15307;SDS011;7755;52.208;6.964;2023-11-21T23:19:50;15.90;;;12.63;;
15307;SDS011;7755;52.208;6.964;2023-11-21T23:23:57;16.83;;;11.30;;
15307;SDS011;7755;52.208;6.964;2023-11-21T23:28:08;17.70;;;12.87;;
15307;SDS011;7755;52.208;6.964;2023-11-21T23:32:13;18.67;;;12.30;;
15307;SDS011;7755;52.208;6.964;2023-11-21T23:36:23;13.93;;;11.83;;
15307;SDS011;7755;52.208;6.964;2023-11-21T23:40:28;13.10;;;10.30;;
15307;SDS011;7755;52.208;6.964;2023-11-21T23:44:33;15.30;;;12.23;;
15307;SDS011;7755;52.208;6.964;2023-11-21T23:48:37;14.60;;;11.97;;
15307;SDS011;7755;52.208;6.964;2023-11-21T23:52:45;15.93;;;12.47;;
15307;SDS011;7755;52.208;6.964;2023-11-21T23:56:50;17.03;;;14.27;;
